sensor_id;sensor_type;location;lat;lon;timestamp;P1;durP1;ratioP1;P2;durP2;ratioP2
32786;SDS011;19139;49.372;8.580;2022-09-11T00:01:53;0.30;;;0.30;;
32786;SDS011;19139;49.372;8.580;2022-09-11T00:04:25;0.60;;;0.43;;
32786;SDS011;19139;49.372;8.580;2022-09-11T00:06:57;0.50;;;0.37;;
32786;SDS011;19139;49.372;8.580;2022-09-11T00:09:25;0.63;;;0.37;;
32786;SDS011;19139;49.372;8.580;2022-09-11T00:11:56;0.60;;;0.40;;
32786;SDS011;19139;49.372;8.580;2022-09-11T00:14:23;0.43;;;0.43;;
32786;SDS011;19139;49.372;8.580;2022-09-11T00:16:53;0.67;;;0.43;;
32786;SDS011;19139;49.372;8.580;2022-09-11T00:19:25;0.60;;;0.40;;
32786;SDS011;19139;49.372;8.580;2022-09-11T00:21:58;0.90;;;0.80;;
32786;SDS011;19139;49.372;8.580;2022-09-11T00:24:24;0.60;;;0.40;;
32786;SDS011;19139;49.372;8.580;2022-09-11T00:26:56;0.33;;;0.33;;
32786;SDS011;19139;49.372;8.580;2022-09-11T00:29:27;0.60;;;0.40;;
32786;SDS011;19139;49.372;8.580;2022-09-11T00:31:54;0.97;;;0.60;;
32786;SDS011;19139;49.372;8.580;2022-09-11T00:34:27;0.30;;;0.30;;
32786;SDS011;19139;49.372;8.580;2022-09-11T00:36:54;0.40;;;0.40;;
32786;SDS011;19139;49.372;8.580;2022-09-11T00:39:25;0.63;;;0.50;;
32786;SDS011;19139;49.372;8.580;2022-09-11T00:41:57;0.50;;;0.40;;
32786;SDS011;19139;49.372;8.580;2022-09-11T00:47:01;0.50;;;0.20;;
32786;SDS011;19139;49.372;8.580;2022-09-11T00:49:39;0.80;;;0.50;;
32786;SDS011;19139;49.372;8.580;2022-09-11T00:52:08;0.37;;;0.37;;
32786;SDS011;19139;49.372;8.580;2022-09-11T00:57:15;0.80;;;0.40;;
32786;SDS011;19139;49.372;8.580;2022-09-11T00:59:42;0.60;;;0.40;;
32786;SDS011;19139;49.372;8.580;2022-09-11T01:02:13;0.70;;;0.70;;
32786;SDS011;19139;49.372;8.580;2022-09-11T01:04:44;0.80;;;0.40;;
32786;SDS011;19139;49.372;8.580;2022-09-11T01:07:11;0.30;;;0.30;;
32786;SDS011;19139;49.372;8.580;2022-09-11T01:09:45;0.47;;;0.33;;
32786;SDS011;19139;49.372;8.580;2022-09-11T01:15:02;0.40;;;0.30;;
32786;SDS011;19139;49.372;8.580;2022-09-11T01:17:45;0.73;;;0.60;;
32786;SDS011;19139;49.372;8.580;2022-09-11T01:20:25;0.30;;;0.27;;
32786;SDS011;19139;49.372;8.580;2022-09-11T01:23:07;0.50;;;0.40;;
32786;SDS011;19139;49.372;8.580;2022-09-11T01:29:11;0.50;;;0.40;;
32786;SDS011;19139;49.372;8.580;2022-09-11T01:31:47;0.40;;;0.40;;
32786;SDS011;19139;49.372;8.580;2022-09-11T01:34:43;0.50;;;0.43;;
32786;SDS011;19139;49.372;8.580;2022-09-11T01:37:29;0.40;;;0.30;;
32786;SDS011;19139;49.372;8.580;2022-09-11T01:40:16;0.53;;;0.43;;
32786;SDS011;19139;49.372;8.580;2022-09-11T01:42:56;0.50;;;0.50;;
32786;SDS011;19139;49.372;8.580;2022-09-11T01:45:32;0.53;;;0.50;;
32786;SDS011;19139;49.372;8.580;2022-09-11T01:48:02;0.80;;;0.40;;
32786;SDS011;19139;49.372;8.580;2022-09-11T01:50:32;0.40;;;0.30;;
32786;SDS011;19139;49.372;8.580;2022-09-11T01:53:02;0.30;;;0.20;;
32786;SDS011;19139;49.372;8.580;2022-09-11T01:55:36;0.77;;;0.40;;
32786;SDS011;19139;49.372;8.580;2022-09-11T01:58:13;0.40;;;0.40;;
32786;SDS011;19139;49.372;8.580;2022-09-11T02:00:50;0.43;;;0.43;;
32786;SDS011;19139;49.372;8.580;2022-09-11T02:06:06;0.37;;;0.37;;
32786;SDS011;19139;49.372;8.580;2022-09-11T02:08:45;0.40;;;0.30;;
32786;SDS011;19139;49.372;8.580;2022-09-11T02:11:23;0.57;;;0.57;;
32786;SDS011;19139;49.372;8.580;2022-09-11T02:16:39;0.50;;;0.50;;
32786;SDS011;19139;49.372;8.580;2022-09-11T02:19:23;0.67;;;0.57;;
32786;SDS011;19139;49.372;8.580;2022-09-11T02:21:52;0.50;;;0.50;;
32786;SDS011;19139;49.372;8.580;2022-09-11T02:24:21;0.73;;;0.50;;
32786;SDS011;19139;49.372;8.580;2022-09-11T02:26:54;0.60;;;0.50;;
32786;SDS011;19139;49.372;8.580;2022-09-11T02:29:35;0.40;;;0.40;;
32786;SDS011;19139;49.372;8.580;2022-09-11T02:32:04;0.40;;;0.40;;
32786;SDS011;19139;49.372;8.580;2022-09-11T02:34:32;0.40;;;0.40;;
32786;SDS011;19139;49.372;8.580;2022-09-11T02:43:03;0.40;;;0.40;;
32786;SDS011;19139;49.372;8.580;2022-09-11T02:45:45;0.77;;;0.40;;
32786;SDS011;19139;49.372;8.580;2022-09-11T02:48:46;0.53;;;0.40;;
32786;SDS011;19139;49.372;8.580;2022-09-11T02:51:24;0.80;;;0.60;;
32786;SDS011;19139;49.372;8.580;2022-09-11T02:57:05;0.33;;;0.33;;
32786;SDS011;19139;49.372;8.580;2022-09-11T02:59:57;0.70;;;0.50;;
32786;SDS011;19139;49.372;8.580;2022-09-11T03:02:31;0.63;;;0.50;;
32786;SDS011;19139;49.372;8.580;2022-09-11T03:05:02;0.63;;;0.40;;
32786;SDS011;19139;49.372;8.580;2022-09-11T03:07:35;0.87;;;0.30;;
32786;SDS011;19139;49.372;8.580;2022-09-11T03:10:02;0.63;;;0.63;;
32786;SDS011;19139;49.372;8.580;2022-09-11T03:12:33;0.37;;;0.30;;
32786;SDS011;19139;49.372;8.580;2022-09-11T03:15:01;0.63;;;0.63;;
32786;SDS011;19139;49.372;8.580;2022-09-11T03:17:33;0.30;;;0.30;;
32786;SDS011;19139;49.372;8.580;2022-09-11T03:20:05;0.60;;;0.50;;
32786;SDS011;19139;49.372;8.580;2022-09-11T03:22:32;0.40;;;0.40;;
32786;SDS011;19139;49.372;8.580;2022-09-11T03:25:03;0.33;;;0.33;;
32786;SDS011;19139;49.372;8.580;2022-09-11T03:27:35;0.37;;;0.37;;
32786;SDS011;19139;49.372;8.580;2022-09-11T03:30:09;0.90;;;0.37;;
32786;SDS011;19139;49.372;8.580;2022-09-11T03:32:41;0.43;;;0.40;;
32786;SDS011;19139;49.372;8.580;2022-09-11T03:35:12;0.57;;;0.57;;
32786;SDS011;19139;49.372;8.580;2022-09-11T03:37:44;0.47;;;0.40;;
32786;SDS011;19139;49.372;8.580;2022-09-11T03:40:12;0.47;;;0.40;;
32786;SDS011;19139;49.372;8.580;2022-09-11T03:42:43;0.60;;;0.33;;
32786;SDS011;19139;49.372;8.580;2022-09-11T03:45:15;0.70;;;0.50;;
32786;SDS011;19139;49.372;8.580;2022-09-11T03:47:41;1.63;;;0.70;;
32786;SDS011;19139;49.372;8.580;2022-09-11T03:50:13;0.60;;;0.40;;
32786;SDS011;19139;49.372;8.580;2022-09-11T03:52:44;0.30;;;0.30;;
32786;SDS011;19139;49.372;8.580;2022-09-11T03:55:11;0.57;;;0.30;;
32786;SDS011;19139;49.372;8.580;2022-09-11T03:57:42;0.60;;;0.37;;
32786;SDS011;19139;49.372;8.580;2022-09-11T04:00:14;0.50;;;0.40;;
32786;SDS011;19139;49.372;8.580;2022-09-11T04:02:40;0.50;;;0.50;;
32786;SDS011;19139;49.372;8.580;2022-09-11T04:05:12;0.60;;;0.60;;
32786;SDS011;19139;49.372;8.580;2022-09-11T04:07:43;0.43;;;0.43;;
32786;SDS011;19139;49.372;8.580;2022-09-11T04:10:15;0.50;;;0.40;;
32786;SDS011;19139;49.372;8.580;2022-09-11T04:12:41;0.50;;;0.40;;
32786;SDS011;19139;49.372;8.580;2022-09-11T04:15:14;0.87;;;0.50;;
32786;SDS011;19139;49.372;8.580;2022-09-11T04:17:45;0.80;;;0.40;;
32786;SDS011;19139;49.372;8.580;2022-09-11T04:20:12;1.47;;;0.50;;
32786;SDS011;19139;49.372;8.580;2022-09-11T04:22:43;0.50;;;0.50;;
32786;SDS011;19139;49.372;8.580;2022-09-11T04:25:15;0.57;;;0.53;;
32786;SDS011;19139;49.372;8.580;2022-09-11T04:27:42;0.50;;;0.50;;
32786;SDS011;19139;49.372;8.580;2022-09-11T04:30:13;0.40;;;0.40;;
32786;SDS011;19139;49.372;8.580;2022-09-11T04:32:45;0.90;;;0.30;;
32786;SDS011;19139;49.372;8.580;2022-09-11T04:35:11;0.30;;;0.30;;
32786;SDS011;19139;49.372;8.580;2022-09-11T04:37:42;0.40;;;0.20;;
32786;SDS011;19139;49.372;8.580;2022-09-11T04:40:14;0.40;;;0.30;;
32786;SDS011;19139;49.372;8.580;2022-09-11T04:42:41;0.20;;;0.20;;
32786;SDS011;19139;49.372;8.580;2022-09-11T04:45:12;0.40;;;0.30;;
32786;SDS011;19139;49.372;8.580;2022-09-11T04:47:44;0.60;;;0.40;;
32786;SDS011;19139;49.372;8.580;2022-09-11T04:50:10;0.30;;;0.30;;
32786;SDS011;19139;49.372;8.580;2022-09-11T04:52:45;0.80;;;0.50;;
32786;SDS011;19139;49.372;8.580;2022-09-11T04:55:12;0.50;;;0.40;;
32786;SDS011;19139;49.372;8.580;2022-09-11T04:57:43;0.40;;;0.40;;
32786;SDS011;19139;49.372;8.580;2022-09-11T05:00:15;0.30;;;0.30;;
32786;SDS011;19139;49.372;8.580;2022-09-11T05:02:42;0.47;;;0.47;;
32786;SDS011;19139;49.372;8.580;2022-09-11T05:05:13;0.40;;;0.30;;
32786;SDS011;19139;49.372;8.580;2022-09-11T05:07:47;0.40;;;0.40;;
32786;SDS011;19139;49.372;8.580;2022-09-11T05:10:20;0.60;;;0.50;;
32786;SDS011;19139;49.372;8.580;2022-09-11T05:12:51;0.37;;;0.37;;
32786;SDS011;19139;49.372;8.580;2022-09-11T05:15:23;0.60;;;0.40;;
32786;SDS011;19139;49.372;8.580;2022-09-11T05:17:54;1.10;;;0.53;;
32786;SDS011;19139;49.372;8.580;2022-09-11T05:20:21;0.73;;;0.73;;
32786;SDS011;19139;49.372;8.580;2022-09-11T05:22:52;0.80;;;0.50;;
32786;SDS011;19139;49.372;8.580;2022-09-11T05:25:24;0.50;;;0.40;;
32786;SDS011;19139;49.372;8.580;2022-09-11T05:27:50;0.80;;;0.40;;
32786;SDS011;19139;49.372;8.580;2022-09-11T05:30:22;0.50;;;0.50;;
32786;SDS011;19139;49.372;8.580;2022-09-11T05:32:53;0.50;;;0.30;;
32786;SDS011;19139;49.372;8.580;2022-09-11T05:35:25;0.67;;;0.40;;
32786;SDS011;19139;49.372;8.580;2022-09-11T05:37:57;0.60;;;0.50;;
32786;SDS011;19139;49.372;8.580;2022-09-11T05:40:28;0.63;;;0.30;;
32786;SDS011;19139;49.372;8.580;2022-09-11T05:43:00;0.40;;;0.30;;
32786;SDS011;19139;49.372;8.580;2022-09-11T05:45:32;0.50;;;0.40;;
32786;SDS011;19139;49.372;8.580;2022-09-11T05:48:03;1.27;;;0.40;;
32786;SDS011;19139;49.372;8.580;2022-09-11T05:50:35;0.53;;;0.53;;
32786;SDS011;19139;49.372;8.580;2022-09-11T05:53:02;0.57;;;0.40;;
32786;SDS011;19139;49.372;8.580;2022-09-11T05:55:33;0.50;;;0.50;;
32786;SDS011;19139;49.372;8.580;2022-09-11T05:58:05;0.67;;;0.30;;
32786;SDS011;19139;49.372;8.580;2022-09-11T06:00:31;0.67;;;0.50;;
32786;SDS011;19139;49.372;8.580;2022-09-11T06:03:03;0.40;;;0.40;;
32786;SDS011;19139;49.372;8.580;2022-09-11T06:05:35;0.77;;;0.43;;
32786;SDS011;19139;49.372;8.580;2022-09-11T06:08:02;0.47;;;0.33;;
32786;SDS011;19139;49.372;8.580;2022-09-11T06:10:35;0.20;;;0.20;;
32786;SDS011;19139;49.372;8.580;2022-09-11T06:13:02;0.50;;;0.47;;
32786;SDS011;19139;49.372;8.580;2022-09-11T06:18:20;0.50;;;0.50;;
32786;SDS011;19139;49.372;8.580;2022-09-11T06:21:01;0.40;;;0.40;;
32786;SDS011;19139;49.372;8.580;2022-09-11T06:23:35;0.50;;;0.50;;
32786;SDS011;19139;49.372;8.580;2022-09-11T06:26:05;0.73;;;0.60;;
32786;SDS011;19139;49.372;8.580;2022-09-11T06:28:34;0.60;;;0.60;;
32786;SDS011;19139;49.372;8.580;2022-09-11T06:31:02;0.60;;;0.40;;
32786;SDS011;19139;49.372;8.580;2022-09-11T06:33:33;0.73;;;0.50;;
32786;SDS011;19139;49.372;8.580;2022-09-11T06:36:02;0.60;;;0.40;;
32786;SDS011;19139;49.372;8.580;2022-09-11T06:38:30;0.50;;;0.50;;
32786;SDS011;19139;49.372;8.580;2022-09-11T06:40:59;0.60;;;0.50;;
32786;SDS011;19139;49.372;8.580;2022-09-11T06:43:30;0.50;;;0.50;;
32786;SDS011;19139;49.372;8.580;2022-09-11T06:46:03;0.53;;;0.53;;
32786;SDS011;19139;49.372;8.580;2022-09-11T06:48:31;0.50;;;0.50;;
32786;SDS011;19139;49.372;8.580;2022-09-11T06:51:04;0.70;;;0.50;;
32786;SDS011;19139;49.372;8.580;2022-09-11T06:53:32;0.43;;;0.40;;
32786;SDS011;19139;49.372;8.580;2022-09-11T06:55:59;0.50;;;0.40;;
32786;SDS011;19139;49.372;8.580;2022-09-11T06:58:27;0.50;;;0.40;;
32786;SDS011;19139;49.372;8.580;2022-09-11T07:01:03;0.60;;;0.60;;
32786;SDS011;19139;49.372;8.580;2022-09-11T07:03:31;1.03;;;0.50;;
32786;SDS011;19139;49.372;8.580;2022-09-11T07:05:59;0.60;;;0.40;;
32786;SDS011;19139;49.372;8.580;2022-09-11T07:08:26;0.53;;;0.40;;
32786;SDS011;19139;49.372;8.580;2022-09-11T07:10:52;0.50;;;0.40;;
32786;SDS011;19139;49.372;8.580;2022-09-11T07:13:20;0.43;;;0.37;;
32786;SDS011;19139;49.372;8.580;2022-09-11T07:15:58;0.77;;;0.60;;
32786;SDS011;19139;49.372;8.580;2022-09-11T07:18:31;0.70;;;0.57;;
32786;SDS011;19139;49.372;8.580;2022-09-11T07:20:59;0.50;;;0.50;;
32786;SDS011;19139;49.372;8.580;2022-09-11T07:23:25;0.70;;;0.30;;
32786;SDS011;19139;49.372;8.580;2022-09-11T07:25:52;0.47;;;0.40;;
32786;SDS011;19139;49.372;8.580;2022-09-11T07:28:19;0.70;;;0.50;;
32786;SDS011;19139;49.372;8.580;2022-09-11T07:30:46;0.50;;;0.47;;
32786;SDS011;19139;49.372;8.580;2022-09-11T07:33:13;0.60;;;0.60;;
32786;SDS011;19139;49.372;8.580;2022-09-11T07:35:40;0.87;;;0.47;;
32786;SDS011;19139;49.372;8.580;2022-09-11T07:38:07;0.60;;;0.60;;
32786;SDS011;19139;49.372;8.580;2022-09-11T07:40:33;0.77;;;0.63;;
32786;SDS011;19139;49.372;8.580;2022-09-11T07:43:05;0.57;;;0.57;;
32786;SDS011;19139;49.372;8.580;2022-09-11T07:45:32;0.83;;;0.60;;
32786;SDS011;19139;49.372;8.580;2022-09-11T07:47:59;0.60;;;0.60;;
32786;SDS011;19139;49.372;8.580;2022-09-11T07:50:26;0.60;;;0.53;;
32786;SDS011;19139;49.372;8.580;2022-09-11T07:52:53;2.47;;;0.50;;
32786;SDS011;19139;49.372;8.580;2022-09-11T07:55:20;0.60;;;0.60;;
32786;SDS011;19139;49.372;8.580;2022-09-11T07:57:46;0.50;;;0.50;;
32786;SDS011;19139;49.372;8.580;2022-09-11T08:00:15;0.60;;;0.60;;
32786;SDS011;19139;49.372;8.580;2022-09-11T08:02:42;0.50;;;0.40;;
32786;SDS011;19139;49.372;8.580;2022-09-11T08:05:08;0.83;;;0.67;;
32786;SDS011;19139;49.372;8.580;2022-09-11T08:07:35;0.60;;;0.60;;
32786;SDS011;19139;49.372;8.580;2022-09-11T08:10:02;0.80;;;0.50;;
32786;SDS011;19139;49.372;8.580;2022-09-11T08:12:49;0.43;;;0.43;;
32786;SDS011;19139;49.372;8.580;2022-09-11T08:15:21;0.70;;;0.50;;
32786;SDS011;19139;49.372;8.580;2022-09-11T08:17:48;0.50;;;0.50;;
32786;SDS011;19139;49.372;8.580;2022-09-11T08:20:16;0.70;;;0.60;;
32786;SDS011;19139;49.372;8.580;2022-09-11T08:22:43;0.60;;;0.60;;
32786;SDS011;19139;49.372;8.580;2022-09-11T08:25:09;0.60;;;0.57;;
32786;SDS011;19139;49.372;8.580;2022-09-11T08:27:36;0.40;;;0.40;;
32786;SDS011;19139;49.372;8.580;2022-09-11T08:30:03;0.53;;;0.50;;
32786;SDS011;19139;49.372;8.580;2022-09-11T08:32:35;1.00;;;0.70;;
32786;SDS011;19139;49.372;8.580;2022-09-11T08:35:01;0.80;;;0.63;;
32786;SDS011;19139;49.372;8.580;2022-09-11T08:37:29;0.50;;;0.50;;
32786;SDS011;19139;49.372;8.580;2022-09-11T08:39:55;0.80;;;0.80;;
32786;SDS011;19139;49.372;8.580;2022-09-11T08:42:22;0.80;;;0.80;;
32786;SDS011;19139;49.372;8.580;2022-09-11T08:44:52;0.77;;;0.77;;
32786;SDS011;19139;49.372;8.580;2022-09-11T08:47:23;0.83;;;0.83;;
32786;SDS011;19139;49.372;8.580;2022-09-11T08:49:57;0.40;;;0.40;;
32786;SDS011;19139;49.372;8.580;2022-09-11T08:52:34;0.60;;;0.60;;
32786;SDS011;19139;49.372;8.580;2022-09-11T08:55:02;0.90;;;0.60;;
32786;SDS011;19139;49.372;8.580;2022-09-11T09:00:31;0.63;;;0.60;;
32786;SDS011;19139;49.372;8.580;2022-09-11T09:03:18;0.73;;;0.53;;
32786;SDS011;19139;49.372;8.580;2022-09-11T09:09:00;0.70;;;0.70;;
32786;SDS011;19139;49.372;8.580;2022-09-11T09:11:48;0.40;;;0.40;;
32786;SDS011;19139;49.372;8.580;2022-09-11T09:14:48;0.60;;;0.60;;
32786;SDS011;19139;49.372;8.580;2022-09-11T09:17:51;0.50;;;0.43;;
32786;SDS011;19139;49.372;8.580;2022-09-11T09:20:34;1.23;;;0.77;;
32786;SDS011;19139;49.372;8.580;2022-09-11T09:25:49;0.70;;;0.40;;
32786;SDS011;19139;49.372;8.580;2022-09-11T09:31:05;0.60;;;0.60;;
32786;SDS011;19139;49.372;8.580;2022-09-11T09:33:43;0.67;;;0.60;;
32786;SDS011;19139;49.372;8.580;2022-09-11T09:36:24;0.60;;;0.50;;
32786;SDS011;19139;49.372;8.580;2022-09-11T09:39:08;0.67;;;0.50;;
32786;SDS011;19139;49.372;8.580;2022-09-11T09:44:33;2.57;;;1.97;;
32786;SDS011;19139;49.372;8.580;2022-09-11T09:47:25;5.37;;;4.87;;
32786;SDS011;19139;49.372;8.580;2022-09-11T09:49:53;5.87;;;4.97;;
32786;SDS011;19139;49.372;8.580;2022-09-11T09:52:24;5.73;;;5.00;;
32786;SDS011;19139;49.372;8.580;2022-09-11T09:55:10;4.20;;;3.70;;
32786;SDS011;19139;49.372;8.580;2022-09-11T09:57:45;3.40;;;3.00;;
32786;SDS011;19139;49.372;8.580;2022-09-11T10:00:13;4.23;;;3.47;;
32786;SDS011;19139;49.372;8.580;2022-09-11T10:02:45;2.93;;;2.63;;
32786;SDS011;19139;49.372;8.580;2022-09-11T10:05:24;3.23;;;3.03;;
32786;SDS011;19139;49.372;8.580;2022-09-11T10:11:03;3.93;;;3.10;;
32786;SDS011;19139;49.372;8.580;2022-09-11T10:13:38;3.37;;;3.17;;
32786;SDS011;19139;49.372;8.580;2022-09-11T10:16:19;3.27;;;2.97;;
32786;SDS011;19139;49.372;8.580;2022-09-11T10:18:48;3.43;;;3.13;;
32786;SDS011;19139;49.372;8.580;2022-09-11T10:21:28;4.70;;;3.07;;
32786;SDS011;19139;49.372;8.580;2022-09-11T10:24:02;3.07;;;2.87;;
32786;SDS011;19139;49.372;8.580;2022-09-11T10:26:49;2.87;;;2.67;;
32786;SDS011;19139;49.372;8.580;2022-09-11T10:29:25;3.77;;;3.43;;
32786;SDS011;19139;49.372;8.580;2022-09-11T10:32:00;3.20;;;2.87;;
32786;SDS011;19139;49.372;8.580;2022-09-11T10:34:33;3.53;;;3.23;;
32786;SDS011;19139;49.372;8.580;2022-09-11T10:37:05;3.43;;;3.13;;
32786;SDS011;19139;49.372;8.580;2022-09-11T10:39:50;3.37;;;3.07;;
32786;SDS011;19139;49.372;8.580;2022-09-11T10:42:25;3.10;;;2.90;;
32786;SDS011;19139;49.372;8.580;2022-09-11T10:45:11;3.43;;;3.10;;
32786;SDS011;19139;49.372;8.580;2022-09-11T10:47:42;3.10;;;2.90;;
32786;SDS011;19139;49.372;8.580;2022-09-11T10:52:46;3.30;;;3.00;;
32786;SDS011;19139;49.372;8.580;2022-09-11T10:55:18;3.87;;;3.57;;
32786;SDS011;19139;49.372;8.580;2022-09-11T10:57:51;3.10;;;2.80;;
32786;SDS011;19139;49.372;8.580;2022-09-11T11:00:29;3.30;;;3.10;;
32786;SDS011;19139;49.372;8.580;2022-09-11T11:03:04;3.23;;;3.03;;
32786;SDS011;19139;49.372;8.580;2022-09-11T11:05:48;3.03;;;2.73;;
32786;SDS011;19139;49.372;8.580;2022-09-11T11:14:09;3.33;;;3.03;;
32786;SDS011;19139;49.372;8.580;2022-09-11T11:26:02;17.37;;;8.37;;
32786;SDS011;19139;49.372;8.580;2022-09-11T11:34:24;15.63;;;11.50;;
32786;SDS011;19139;49.372;8.580;2022-09-11T11:37:03;15.93;;;11.13;;
32786;SDS011;19139;49.372;8.580;2022-09-11T11:42:33;16.03;;;10.00;;
32786;SDS011;19139;49.372;8.580;2022-09-11T11:45:19;14.97;;;9.83;;
32786;SDS011;19139;49.372;8.580;2022-09-11T11:48:05;14.00;;;8.47;;
32786;SDS011;19139;49.372;8.580;2022-09-11T11:50:43;12.87;;;9.07;;
32786;SDS011;19139;49.372;8.580;2022-09-11T11:53:26;13.23;;;8.30;;
32786;SDS011;19139;49.372;8.580;2022-09-11T11:56:24;14.07;;;9.00;;
32786;SDS011;19139;49.372;8.580;2022-09-11T11:59:11;10.30;;;8.13;;
32786;SDS011;19139;49.372;8.580;2022-09-11T12:04:58;11.53;;;7.53;;
32786;SDS011;19139;49.372;8.580;2022-09-11T12:07:35;9.43;;;6.97;;
32786;SDS011;19139;49.372;8.580;2022-09-11T12:10:17;9.00;;;7.60;;
32786;SDS011;19139;49.372;8.580;2022-09-11T12:13:02;9.57;;;8.03;;
32786;SDS011;19139;49.372;8.580;2022-09-11T12:15:31;7.77;;;6.90;;
32786;SDS011;19139;49.372;8.580;2022-09-11T12:20:42;7.17;;;6.47;;
32786;SDS011;19139;49.372;8.580;2022-09-11T12:28:39;7.30;;;6.63;;
32786;SDS011;19139;49.372;8.580;2022-09-11T12:31:11;9.43;;;7.07;;
32786;SDS011;19139;49.372;8.580;2022-09-11T12:33:48;8.90;;;6.87;;
32786;SDS011;19139;49.372;8.580;2022-09-11T12:36:26;8.33;;;6.30;;
32786;SDS011;19139;49.372;8.580;2022-09-11T12:44:55;8.87;;;6.47;;
32786;SDS011;19139;49.372;8.580;2022-09-11T12:47:35;7.87;;;6.93;;
32786;SDS011;19139;49.372;8.580;2022-09-11T12:50:18;7.53;;;6.83;;
32786;SDS011;19139;49.372;8.580;2022-09-11T12:52:48;7.83;;;7.13;;
32786;SDS011;19139;49.372;8.580;2022-09-11T13:00:46;7.03;;;6.33;;
32786;SDS011;19139;49.372;8.580;2022-09-11T13:03:17;6.93;;;5.93;;
32786;SDS011;19139;49.372;8.580;2022-09-11T13:05:56;8.20;;;7.40;;
32786;SDS011;19139;49.372;8.580;2022-09-11T13:08:26;8.10;;;7.00;;
32786;SDS011;19139;49.372;8.580;2022-09-11T13:14:02;7.47;;;6.63;;
32786;SDS011;19139;49.372;8.580;2022-09-11T13:16:29;7.63;;;6.90;;
32786;SDS011;19139;49.372;8.580;2022-09-11T13:21:39;8.87;;;6.70;;
32786;SDS011;19139;49.372;8.580;2022-09-11T13:26:54;8.20;;;6.93;;
32786;SDS011;19139;49.372;8.580;2022-09-11T13:29:25;7.13;;;6.43;;
32786;SDS011;19139;49.372;8.580;2022-09-11T13:31:55;6.93;;;6.33;;
32786;SDS011;19139;49.372;8.580;2022-09-11T13:34:25;7.80;;;7.00;;
32786;SDS011;19139;49.372;8.580;2022-09-11T13:36:54;7.37;;;6.63;;
32786;SDS011;19139;49.372;8.580;2022-09-11T13:39:22;7.80;;;7.10;;
32786;SDS011;19139;49.372;8.580;2022-09-11T13:41:53;8.63;;;5.97;;
32786;SDS011;19139;49.372;8.580;2022-09-11T13:47:18;6.93;;;6.30;;
32786;SDS011;19139;49.372;8.580;2022-09-11T13:49:47;7.00;;;6.30;;
32786;SDS011;19139;49.372;8.580;2022-09-11T13:52:17;7.90;;;7.20;;
32786;SDS011;19139;49.372;8.580;2022-09-11T13:54:50;7.90;;;6.53;;
32786;SDS011;19139;49.372;8.580;2022-09-11T13:57:19;7.83;;;6.93;;
32786;SDS011;19139;49.372;8.580;2022-09-11T13:59:51;7.20;;;6.50;;
32786;SDS011;19139;49.372;8.580;2022-09-11T14:02:22;6.80;;;6.10;;
32786;SDS011;19139;49.372;8.580;2022-09-11T14:05:16;6.97;;;6.37;;
32786;SDS011;19139;49.372;8.580;2022-09-11T14:07:59;7.87;;;7.00;;
32786;SDS011;19139;49.372;8.580;2022-09-11T14:10:54;6.90;;;6.17;;
32786;SDS011;19139;49.372;8.580;2022-09-11T14:16:31;7.13;;;6.47;;
32786;SDS011;19139;49.372;8.580;2022-09-11T14:21:37;7.70;;;6.90;;
32786;SDS011;19139;49.372;8.580;2022-09-11T14:27:00;6.77;;;6.17;;
32786;SDS011;19139;49.372;8.580;2022-09-11T14:29:30;6.43;;;5.83;;
32786;SDS011;19139;49.372;8.580;2022-09-11T14:35:02;7.07;;;6.20;;
32786;SDS011;19139;49.372;8.580;2022-09-11T14:37:32;7.27;;;6.60;;
32786;SDS011;19139;49.372;8.580;2022-09-11T14:40:06;6.30;;;5.70;;
32786;SDS011;19139;49.372;8.580;2022-09-11T14:42:45;6.60;;;6.00;;
32786;SDS011;19139;49.372;8.580;2022-09-11T14:45:17;6.60;;;6.00;;
32786;SDS011;19139;49.372;8.580;2022-09-11T14:47:43;5.93;;;5.43;;
32786;SDS011;19139;49.372;8.580;2022-09-11T14:50:15;6.27;;;5.77;;
32786;SDS011;19139;49.372;8.580;2022-09-11T14:52:42;6.47;;;5.87;;
32786;SDS011;19139;49.372;8.580;2022-09-11T14:55:13;6.40;;;5.77;;
32786;SDS011;19139;49.372;8.580;2022-09-11T14:57:45;6.07;;;5.47;;
32786;SDS011;19139;49.372;8.580;2022-09-11T15:00:13;5.97;;;5.47;;
32786;SDS011;19139;49.372;8.580;2022-09-11T15:02:43;6.47;;;5.87;;
32786;SDS011;19139;49.372;8.580;2022-09-11T15:05:17;6.20;;;5.37;;
32786;SDS011;19139;49.372;8.580;2022-09-11T15:07:46;5.90;;;5.30;;
32786;SDS011;19139;49.372;8.580;2022-09-11T15:10:14;5.70;;;5.13;;
32786;SDS011;19139;49.372;8.580;2022-09-11T15:12:45;5.67;;;5.13;;
32786;SDS011;19139;49.372;8.580;2022-09-11T15:15:12;5.47;;;4.87;;
32786;SDS011;19139;49.372;8.580;2022-09-11T15:17:39;6.00;;;5.50;;
32786;SDS011;19139;49.372;8.580;2022-09-11T15:20:06;6.30;;;5.70;;
32786;SDS011;19139;49.372;8.580;2022-09-11T15:22:35;5.97;;;5.47;;
32786;SDS011;19139;49.372;8.580;2022-09-11T15:25:03;6.03;;;5.43;;
32786;SDS011;19139;49.372;8.580;2022-09-11T15:27:35;6.40;;;5.60;;
32786;SDS011;19139;49.372;8.580;2022-09-11T15:30:06;6.07;;;5.57;;
32786;SDS011;19139;49.372;8.580;2022-09-11T15:32:33;5.23;;;4.83;;
32786;SDS011;19139;49.372;8.580;2022-09-11T15:35:04;6.03;;;5.37;;
32786;SDS011;19139;49.372;8.580;2022-09-11T15:37:32;5.67;;;5.17;;
32786;SDS011;19139;49.372;8.580;2022-09-11T15:40:04;5.73;;;5.17;;
32786;SDS011;19139;49.372;8.580;2022-09-11T15:42:32;6.00;;;5.50;;
32786;SDS011;19139;49.372;8.580;2022-09-11T15:45:04;5.73;;;5.33;;
32786;SDS011;19139;49.372;8.580;2022-09-11T15:47:32;5.23;;;4.77;;
32786;SDS011;19139;49.372;8.580;2022-09-11T15:50:04;5.50;;;5.00;;
32786;SDS011;19139;49.372;8.580;2022-09-11T15:52:36;6.17;;;5.60;;
32786;SDS011;19139;49.372;8.580;2022-09-11T15:55:02;5.73;;;5.23;;
32786;SDS011;19139;49.372;8.580;2022-09-11T15:57:34;5.50;;;5.00;;
32786;SDS011;19139;49.372;8.580;2022-09-11T16:00:06;5.63;;;5.13;;
32786;SDS011;19139;49.372;8.580;2022-09-11T16:02:33;5.30;;;4.80;;
32786;SDS011;19139;49.372;8.580;2022-09-11T16:05:05;5.57;;;5.07;;
32786;SDS011;19139;49.372;8.580;2022-09-11T16:07:32;5.63;;;5.13;;
32786;SDS011;19139;49.372;8.580;2022-09-11T16:10:03;5.57;;;5.07;;
32786;SDS011;19139;49.372;8.580;2022-09-11T16:12:35;5.33;;;4.83;;
32786;SDS011;19139;49.372;8.580;2022-09-11T16:15:02;5.87;;;4.80;;
32786;SDS011;19139;49.372;8.580;2022-09-11T16:17:34;4.70;;;4.30;;
32786;SDS011;19139;49.372;8.580;2022-09-11T16:20:06;5.37;;;4.87;;
32786;SDS011;19139;49.372;8.580;2022-09-11T16:22:33;5.70;;;5.27;;
32786;SDS011;19139;49.372;8.580;2022-09-11T16:25:04;5.50;;;5.00;;
32786;SDS011;19139;49.372;8.580;2022-09-11T16:27:36;5.60;;;5.10;;
32786;SDS011;19139;49.372;8.580;2022-09-11T16:30:03;5.40;;;4.90;;
32786;SDS011;19139;49.372;8.580;2022-09-11T16:32:50;5.37;;;4.97;;
32786;SDS011;19139;49.372;8.580;2022-09-11T16:35:17;5.00;;;4.60;;
32786;SDS011;19139;49.372;8.580;2022-09-11T16:37:45;6.00;;;5.37;;
32786;SDS011;19139;49.372;8.580;2022-09-11T16:40:12;6.23;;;4.90;;
32786;SDS011;19139;49.372;8.580;2022-09-11T16:42:38;5.10;;;4.70;;
32786;SDS011;19139;49.372;8.580;2022-09-11T16:45:05;6.70;;;5.53;;
32786;SDS011;19139;49.372;8.580;2022-09-11T16:47:37;5.23;;;4.70;;
32786;SDS011;19139;49.372;8.580;2022-09-11T16:50:04;5.73;;;5.20;;
32786;SDS011;19139;49.372;8.580;2022-09-11T16:52:33;5.40;;;4.90;;
32786;SDS011;19139;49.372;8.580;2022-09-11T16:54:59;5.77;;;5.27;;
32786;SDS011;19139;49.372;8.580;2022-09-11T16:57:26;4.53;;;4.13;;
32786;SDS011;19139;49.372;8.580;2022-09-11T16:59:53;5.47;;;4.97;;
32786;SDS011;19139;49.372;8.580;2022-09-11T17:02:24;5.30;;;4.90;;
32786;SDS011;19139;49.372;8.580;2022-09-11T17:04:56;5.27;;;4.87;;
32786;SDS011;19139;49.372;8.580;2022-09-11T17:07:22;5.80;;;5.30;;
32786;SDS011;19139;49.372;8.580;2022-09-11T17:09:54;5.80;;;4.57;;
32786;SDS011;19139;49.372;8.580;2022-09-11T17:12:25;4.77;;;4.37;;
32786;SDS011;19139;49.372;8.580;2022-09-11T17:14:52;4.97;;;4.57;;
32786;SDS011;19139;49.372;8.580;2022-09-11T17:17:24;5.17;;;4.77;;